Thursday, October 23, 2014
10:16 UTC
  |  Log In   |  Register Free
Airport Search:

Indiana County/Jimmy Stewart Fld/ Airport
(KIDI)

Indiana County/Jimmy Stewart Fld/ Airport Diagram
No Airport Diagram Available

FAA data valid effective September 18, 2014 - November 13, 2014 (unless otherwise noted).

 
 
 
 
 
 
 
 
 
 
 
 
 
 

Current Aviation Weather for Indiana County/Jimmy Stewart Fld/ Airport (KIDI)

The most recent METAR observation for KIDI was updated at: 1012
METAR Summary (Translated METAR)
KIDI
230955Z AUTO 36005KT 10SM OVC017 08/05 A3012 RMK A01
KJST
230954Z AUTO 32014KT 10SM OVC007 06/03 A3005 RMK AO2 SLP187 T00560033
(22.7 nm SE from KIDI)
KLBE
231002Z 31007KT 10SM OVC015 M/M A3012
(25.5 nm SW from KIDI)
TAF Summary (Translated TAF)
KJST
(22.7 nm SE from KIDI)
230848Z 2309/2406 32013KT P6SM OVC006 FM231400 32015G25KT P6SM OVC015 FM231800 31014G21KT P6SM SCT035 FM232300 31010KT P6SM FEW025
KLBE
(25.5 nm SW from KIDI)
230526Z 2306/2406 33005KT P6SM OVC015 FM231500 31008KT P6SM BKN025 FM231800 32008KT P6SM SCT035 AMD NOT SKED
  Airport Weather Conditions for KIDI

 Current Weather at IDI
46° F
Overcast
North winds at 5.8 mph
IDI NOAA Radar

Pressure: 30.12 in
Humidity: 82%
Wind: North at 5.8 MPH (5 KT)
Dew Point: 41.0°F
Visibility: 10.00 mi


Airport Weather Forecast for KIDI

Translated METAR and TAF for KIDI
Translated METAR for KIDI (1011 UTC 23 October 2014)
found at http://aviationweather.gov/adds/metars/
 
METAR text: KIDI 230955Z AUTO 36005KT 10SM OVC017 08/05 A3012 RMK A01
Conditions at: KIDI (INDIANA/STEWART , PA, US) observed 0955 UTC 23 October 2014
Temperature: 8.0°C (46°F)
Dewpoint: 5.0°C (41°F) [RH = 81%]
Pressure (altimeter): 30.12 inches Hg (1020.1 mb)
Winds: from the N (360 degrees) at 6 MPH (5 knots; 2.6 m/s)
Visibility: 10 or more miles (16+ km)
Ceiling: 1700 feet AGL
Clouds: overcast cloud deck at 1700 feet AGL
Weather: automated observation with no human augmentation;
there may or may not be significant weather present at this time
Translated TAF for KIDI

There is no translated TAF available for this airport

Find All Airport Services Find A Hotel Find A Rental Car Find A Golf Course Find A Restaurant $100 Hamburger



FBO's on the Field
FBO Company Facility Photos Services Transportation Aviation Fuel Prices: Prices include tax
Catering Weather Repair Courtesy Rental Type 100LL JetA JetA+ MOGAS 8087
 
Indiana County Jimmy Stewart Airport

Currently rated 5 by 1 person
FS: Phillips 66
Last Updated: Oct-15
Login to update fuel prices
SS:
Contact Indiana County Jimmy Stewart AirportMore FBO Information
 
Add another FBO Facility Photos Catering Weather Repair Courtesy Rental Type 100LL JetA JetA+ MOGAS 8087
Services Transportation Aviation Fuel Prices: Prices include tax


model-print
model-print
model-print
model-print